Estación Meteorológica Peña el Pijo (Robertgarden) [ 07/19/18 09:19:30 CEST ]

Fecha Hora Presion(HPa) Temp (°C) Humedad % Rocio (°C) Viento ( m/s) Direccion Lluvia 1Hora(mm) Lluvia 24H(mm) LLuvia Total(mm)
2018-Jul-17 01:01:56 1013.300 15.1 55 6.1         269.36
2018-Jul-17 02:01:53 1013.200 13.6 60 6.0         269.36
2018-Jul-17 03:01:33 1012.900 12.9 62 5.8         269.36
2018-Jul-17 04:01:34 1012.500 11.9 65 5.5         269.36
2018-Jul-17 05:01:35 1012.000 11.3 66 5.2         269.36
2018-Jul-17 06:01:36 1012.200 10.8 68 5.1         269.36
2018-Jul-17 07:01:50 1012.400 10.2 69 4.8         269.36
2018-Jul-17 08:01:45 1012.300 12.2 71 7.1         269.36
2018-Jul-17 09:01:36 1012.200 18.9 55 9.6         269.36
2018-Jul-17 10:01:32 1012.000 25.2 41 11.0         269.36
2018-Jul-17 11:01:39 1011.800 28.8 28 8.3 1.8 N     269.36
2018-Jul-17 12:01:51 1012.000 29.8 26 8.0         269.36
2018-Jul-17 13:01:47 1011.700 32.3 24 8.9         269.36
2018-Jul-17 14:01:44 1011.400 32.4 22 7.8 3.2 SSW     269.36
2018-Jul-17 15:01:47 1010.800 33.3 20 7.3         269.36
2018-Jul-17 16:01:56 1010.600 34.6 20 8.4 1.3 WNW     269.36
2018-Jul-17 17:01:49 1010.100 33.2 20 7.3 0.2 NNW     269.36
2018-Jul-17 18:01:51 1009.700 32.1 21 7.0 4.1 S     269.36
2018-Jul-17 19:01:52 1009.700 30.9 24 7.8         269.36
2018-Jul-17 20:01:44 1009.700 28.9 26 7.2         269.36
2018-Jul-17 21:01:42 1009.900 25.8 32 7.8         269.36
2018-Jul-17 22:01:53 1010.400 22.9 37 7.3         269.36
2018-Jul-17 23:01:46 1010.900 20.1 44 7.4         269.36

Temperatura Máxima:34°    Temperatura Mínima:10°
Presión Máxima:1013.300 Hpa    Presión Mínima:1009.700 Hpa


Volver